• Join FlightAware (Why Join?)
  • Login
  • US Flag 
03:10PM EDT


 

Airport Tracker/Info


-or-


 

Live Flight TrackerFlight Track Log ✈ UAL80 ✈ 06-Apr-2013 ✈ KCLE - KIAH

Flight Track Log - Related Links

Times and Time Zones

All times are in EDT time to prevent confusion due to time zone crossing. See the UAL80 flight status page for this flight to view local times or setup timezone preferences in your user account.

Time Position Orientation Groundspeed Altitude Reporting Facility
EDT Latitude Longitude Course Direction KTS MPH feet Rate Location/Type
02:48PM 41.3830 -81.9010 252° West 192 221 2,400  Level FlightAware
02:48PM 41.3770 -81.9300 255° West 222 255 3,300 2,520 Climbing FlightAware
02:48PM 41.3730 -81.9540 257° West 229 264 4,300 1,440 Climbing FlightAware
02:49PM 41.3660 -81.9860 254° West 231 266 4,400 3,360 Climbing FlightAware
02:49PM 41.3540 -82.0320 251° West 260 299 7,100 5,160 Climbing FlightAware
02:50PM 41.3450 -82.0610 248° West 263 303 8,300 3,600 Climbing FlightAware
02:50PM 41.3350 -82.0920 247° West 265 305 9,500 3,240 Climbing FlightAware
02:50PM 41.3190 -82.1450 248° West 277 319 11,300 2,460 Climbing FlightAware
02:51PM 41.2980 -82.2160 249° West 311 358 12,600 2,040 Climbing FlightAware
02:52PM 41.2790 -82.2760 247° West 330 380 13,900 2,700 Climbing FlightAware
02:53PM 41.2510 -82.3660 248° West 329 379 16,500 2,880 Climbing FlightAware
02:53PM 41.2340 -82.4240 249° West 335 386 17,800 2,520 Climbing FlightAware
02:54PM 41.1870 -82.5530 244° Southwest 357 411 20,500 2,160 Climbing FlightAware
02:55PM 41.1500 -82.6370 240° Southwest 373 429 21,800 1,860 Climbing FlightAware
02:55PM 41.1200 -82.7060 240° Southwest 382 440 23,000 1,920 Climbing FlightAware
02:56PM 41.0960 -82.8060 252° West 386 444 24,400 1,860 Climbing FlightAware
02:57PM 41.0810 -82.9120 259° West 393 452 25,800 2,400 Climbing FlightAware
02:58PM 41.0670 -83.0090 259° West 380 437 27,800 2,280 Climbing FlightAware
02:58PM 41.0520 -83.1110 259° West 381 438 29,100 1,260 Climbing FlightAware
02:59PM 41.0420 -83.1760 258° West 393 452 29,400 1,260 Climbing FlightAware
03:00PM 41.0240 -83.3020 259° West 397 457 30,800 1,560 Climbing FlightAware
03:01PM 41.0020 -83.4440 258° West 396 456 32,300 1,560 Climbing FlightAware
03:01PM 40.9880 -83.5400 259° West 395 455 33,400 1,620 Climbing FlightAware
03:02PM 40.9720 -83.6430 258° West 389 448 34,600 1,620 Climbing FlightAware
03:03PM 40.9550 -83.7360 256° West 386 444 35,700 1,200 Climbing FlightAware
03:03PM 40.9200 -83.7880 228° Southwest 390 449 36,000 240 Climbing FlightAware
03:04PM 40.8610 -83.8420 215° Southwest 392 451 36,000  Level FlightAware
03:05PM 40.8000 -83.8980 215° Southwest 391 450 36,000  Level FlightAware
03:05PM 40.7330 -83.9600 215° Southwest 388 447 36,000  Level FlightAware
03:06PM 40.6750 -84.0130 215° Southwest 388 447 36,000  Level FlightAware
03:07PM 40.6160 -84.0670 215° Southwest 387 445 36,000  Level FlightAware
03:07PM 40.5520 -84.1250 215° Southwest 385 443 36,000  Level FlightAware
03:08PM 40.4920 -84.1800 215° Southwest 385 443 36,000  Level FlightAware
03:09PM 40.4260 -84.2390 214° Southwest 385 443 36,000  Level FlightAware
03:10PM 40.3670 -84.2930 215° Southwest 385 443 36,000  Level FlightAware
03:10PM 40.3070 -84.3590 220° Southwest 377 434 36,000  Level FlightAware
03:11PM 40.2490 -84.4380 226° Southwest 378 435 36,000  Level FlightAware
03:12PM 40.2010 -84.5020 226° Southwest 378 435 36,000  Level FlightAware
03:13PM 40.1440 -84.5790 226° Southwest 379 436 36,000  Level FlightAware
03:13PM 40.0970 -84.6430 226° Southwest 381 438 36,000  Level FlightAware
03:14PM 40.0450 -84.7130 226° Southwest 381 438 36,000  Level FlightAware
03:15PM 39.9970 -84.7770 226° Southwest 381 438 36,000  Level FlightAware
03:15PM 39.9460 -84.8450 226° Southwest 381 438 36,000  Level FlightAware
03:16PM 39.8980 -84.9090 226° Southwest 381 438 36,000  Level FlightAware
03:17PM 39.8420 -84.9830 225° Southwest 381 438 36,000  Level FlightAware
03:17PM 39.7930 -85.0480 226° Southwest 381 438 36,000  Level FlightAware
03:18PM 39.7370 -85.1220 225° Southwest 381 438 36,000  Level FlightAware
03:19PM 39.6880 -85.1870 226° Southwest 381 438 36,000  Level FlightAware
03:19PM 39.6310 -85.2630 226° Southwest 380 437 36,000  Level FlightAware
03:20PM 39.5900 -85.3150 224° Southwest 379 436 36,000  Level FlightAware
03:21PM 39.5330 -85.3910 226° Southwest 379 436 36,000  Level FlightAware
03:22PM 39.4790 -85.4620 225° Southwest 377 434 36,000  Level FlightAware
03:22PM 39.4300 -85.5250 225° Southwest 376 433 36,000  Level FlightAware
03:23PM 39.3730 -85.5990 225° Southwest 376 433 36,000  Level FlightAware
03:24PM 39.3350 -85.6490 226° Southwest 376 433 36,000  Level FlightAware
03:24PM 39.2870 -85.7120 225° Southwest 375 432 36,000  Level FlightAware
03:25PM 39.2120 -85.8090 225° Southwest 374 430 36,000  Level FlightAware
03:26PM 39.1530 -85.8850 225° Southwest 375 432 36,000  Level FlightAware
03:27PM 39.1030 -85.9480 224° Southwest 376 433 36,000  Level FlightAware
03:27PM 39.0510 -86.0160 225° Southwest 376 433 36,000  Level FlightAware
03:28PM 39.0070 -86.0720 225° Southwest 376 433 36,000  Level FlightAware
03:29PM 38.9500 -86.1440 225° Southwest 376 433 36,000  Level FlightAware
03:29PM 38.8970 -86.2120 225° Southwest 378 435 36,000  Level FlightAware
03:30PM 38.8460 -86.2780 225° Southwest 378 435 36,000  Level FlightAware
03:31PM 38.7880 -86.3510 224° Southwest 379 436 36,000  Level FlightAware
03:32PM 38.7390 -86.4130 225° Southwest 379 436 36,000  Level FlightAware
03:32PM 38.6890 -86.4760 225° Southwest 379 436 36,000 480 Level FlightAware
03:33PM 38.6420 -86.5350 224° Southwest 376 433 36,700 1,260 Climbing FlightAware
03:34PM 38.5910 -86.6010 225° Southwest 371 427 37,700 900 Climbing FlightAware
03:34PM 38.5350 -86.6700 224° Southwest 377 434 38,000 180 Climbing FlightAware
03:35PM 38.4910 -86.7260 225° Southwest 380 437 38,000  Level FlightAware
03:36PM 38.4290 -86.8040 225° Southwest 381 438 38,000  Level FlightAware
03:36PM 38.3780 -86.8670 224° Southwest 384 442 38,000  Level FlightAware
03:37PM 38.3190 -86.9400 224° Southwest 386 444 38,000  Level FlightAware
03:38PM 38.2700 -87.0020 225° Southwest 386 444 38,000  Level FlightAware
03:38PM 38.2190 -87.0650 224° Southwest 386 444 38,000  Level FlightAware
03:39PM 38.1590 -87.1390 224° Southwest 387 445 38,000  Level FlightAware
03:40PM 38.1100 -87.2000 224° Southwest 387 445 38,000  Level FlightAware
03:41PM 38.0570 -87.2650 224° Southwest 388 447 38,000  Level FlightAware
03:41PM 38.0000 -87.3350 224° Southwest 387 445 38,000  Level FlightAware
03:42PM 37.9490 -87.3980 224° Southwest 387 445 38,000  Level FlightAware
03:42PM 37.9090 -87.4460 223° Southwest 388 447 38,000  Level FlightAware
03:43PM 37.8510 -87.5170 224° Southwest 389 448 38,000  Level FlightAware
03:44PM 37.7990 -87.5810 224° Southwest 389 448 38,000  Level FlightAware
03:45PM 37.7410 -87.6510 224° Southwest 391 450 38,000  Level FlightAware
03:45PM 37.6890 -87.7150 224° Southwest 392 451 38,000  Level FlightAware
03:46PM 37.6360 -87.7790 224° Southwest 393 452 38,000  Level FlightAware
03:47PM 37.5780 -87.8500 224° Southwest 395 455 38,000  Level FlightAware
03:47PM 37.5250 -87.9140 224° Southwest 396 456 38,000  Level FlightAware
03:48PM 37.4860 -87.9600 223° Southwest 397 457 38,000  Level FlightAware
03:49PM 37.4290 -88.0200 220° Southwest 400 460 38,000  Level FlightAware
03:49PM 37.3640 -88.0830 218° Southwest 399 459 38,000  Level FlightAware
03:50PM 37.3060 -88.1400 218° Southwest 397 457 38,000  Level FlightAware
03:51PM 37.2460 -88.1980 218° Southwest 396 456 38,000  Level FlightAware
03:51PM 37.1840 -88.2580 218° Southwest 395 455 38,000  Level FlightAware
03:52PM 37.1010 -88.3370 217° Southwest 394 453 38,000  Level FlightAware
03:53PM 37.0600 -88.3750 216° Southwest 394 453 38,000  Level FlightAware
03:54PM 36.9870 -88.4480 219° Southwest 393 452 38,000  Level FlightAware
03:54PM 36.9490 -88.4830 216° Southwest 393 452 38,000  Level FlightAware
03:55PM 36.9120 -88.5170 216° Southwest 393 452 38,000  Level FlightAware
03:55PM 36.8750 -88.5520 217° Southwest 393 452 38,000  Level FlightAware
03:56PM 36.8380 -88.5870 217° Southwest 393 452 38,000  Level FlightAware
03:56PM 36.7890 -88.6340 218° Southwest 393 452 38,000  Level FlightAware
03:57PM 36.7270 -88.6920 217° Southwest 393 452 38,000  Level FlightAware
03:58PM 36.6900 -88.7270 217° Southwest 393 452 38,000  Level FlightAware
03:58PM 36.6410 -88.7730 217° Southwest 393 452 38,000  Level FlightAware
03:59PM 36.6040 -88.8080 217° Southwest 393 452 38,000  Level FlightAware
04:00PM 36.5420 -88.8660 217° Southwest 393 452 38,000  Level FlightAware
04:00PM 36.4930 -88.9120 217° Southwest 393 452 38,000  Level FlightAware
04:01PM 36.4560 -88.9470 217° Southwest 393 452 38,000  Level FlightAware
04:01PM 36.4060 -88.9930 217° Southwest 393 452 38,000  Level FlightAware
04:02PM 36.3570 -89.0390 217° Southwest 393 452 38,000  Level FlightAware
04:03PM 36.2950 -89.0970 217° Southwest 393 452 38,000  Level FlightAware
04:03PM 36.1878 -89.3333 217° Southwest 404 465 38,000  Level Memphis Center
04:04PM 36.1092 -89.4269 224° Southwest 399 459 38,000  Level Memphis Center
04:05PM 36.0328 -89.5203 225° Southwest 394 453 38,000  Level Memphis Center
04:06PM 35.9519 -89.6133 223° Southwest 394 453 38,000  Level Memphis Center
04:07PM 35.8692 -89.7064 222° Southwest 394 453 38,000  Level Memphis Center
04:08PM 35.8092 -89.8117 235° Southwest 394 453 38,000  Level Memphis Center
04:09PM 35.7553 -89.9247 240° Southwest 394 453 38,000  Level Memphis Center
04:10PM 35.7014 -90.0375 240° Southwest 394 453 38,000  Level Memphis Center
04:11PM 35.6497 -90.1603 243° Southwest 379 436 38,000  Level Memphis Center
04:12PM 35.5978 -90.2778 241° Southwest 379 436 38,000  Level Memphis Center
04:13PM 35.5289 -90.3750 229° Southwest 379 436 38,000  Level Memphis Center
04:14PM 35.4411 -90.4589 218° Southwest 389 448 38,000  Level Memphis Center
04:15PM 35.3578 -90.5428 219° Southwest 395 455 38,000  Level Memphis Center
04:16PM 35.2719 -90.6267 219° Southwest 395 455 38,000  Level Memphis Center
04:17PM 35.1906 -90.7078 219° Southwest 395 455 38,000  Level Memphis Center
04:18PM 35.1047 -90.7911 218° Southwest 400 460 38,000  Level Memphis Center
04:19PM 35.0208 -90.8719 218° Southwest 400 460 38,000  Level Memphis Center
04:20PM 34.9350 -90.9575 219° Southwest 400 460 38,000  Level Memphis Center
04:21PM 34.8492 -91.0403 218° Southwest 400 460 38,000  Level Memphis Center
04:22PM 34.7650 -91.1256 220° Southwest 400 460 38,000  Level Memphis Center
04:23PM 34.6853 -91.1981 217° Southwest 400 460 38,000  Level Memphis Center
04:24PM 34.6014 -91.2831 220° Southwest 400 460 38,000  Level Memphis Center
04:25PM 34.5150 -91.3653 218° Southwest 400 460 38,000  Level Memphis Center
04:26PM 34.4247 -91.4475 217° Southwest 400 460 38,000  Level Memphis Center
04:27PM 34.3425 -91.5294 219° Southwest 401 461 38,000  Level Memphis Center
04:28PM 34.2542 -91.6111 217° Southwest 401 461 38,000  Level Memphis Center
04:29PM 34.1511 -91.6722 206° Southwest 401 461 38,000  Level Memphis Center
04:30PM 34.0483 -91.7208 201° Southwest 400 460 38,000  Level Memphis Center
04:31PM 33.9414 -91.7719 202° Southwest 400 460 38,000  Level Memphis Center
04:32PM 33.8344 -91.8200 200° South 405 466 38,000  Level Memphis Center
04:33PM 33.7336 -91.8683 202° Southwest 405 466 38,000  Level Memphis Center
04:35PM 33.5231 -91.9644 201° Southwest 403 464 38,000  Level Fort Worth Center
04:36PM 33.4167 -92.0158 202° Southwest 403 464 38,000  Level Fort Worth Center
04:37PM 33.3164 -92.0619 201° Southwest 403 464 38,000  Level Fort Worth Center
04:38PM 33.2078 -92.1106 201° Southwest 403 464 38,000  Level Fort Worth Center
04:39PM 33.1014 -92.1592 201° Southwest 409 471 38,000  Level Fort Worth Center
04:40PM 32.9950 -92.2100 202° Southwest 409 471 38,000  Level Fort Worth Center
04:46PM 32.3716 -92.4962 202° Southwest 404 465 38,000  Level FlightAware ADS-B
04:47PM 32.2827 -92.5368 201° Southwest 404 465 38,000  Level FlightAware ADS-B
04:48PM 32.2186 -92.5659 201° Southwest 412 474 38,000  Level FlightAware ADS-B
04:49PM 32.1031 -92.6185 201° Southwest 415 478 38,000  Level FlightAware ADS-B
04:50PM 32.0258 -92.6536 201° Southwest 416 479 38,000  Level Houston Center
04:56PM 31.4527 -93.1799 201° Southwest 410 472 38,000  Level FlightAware ADS-B
04:57PM 31.3953 -93.2345 219° Southwest 413 475 38,000  Level FlightAware ADS-B
04:57PM 31.3269 -93.2999 219° Southwest 414 476 38,000  Level FlightAware ADS-B
04:58PM 31.2816 -93.3433 219° Southwest 417 480 38,000  Level FlightAware ADS-B
04:59PM 31.2098 -93.4120 219° Southwest 419 482 38,000  Level FlightAware ADS-B
04:59PM 31.1640 -93.4557 219° Southwest 420 483 38,000 -300 Level FlightAware ADS-B
05:00PM 31.1156 -93.5016 219° Southwest 419 482 37,700 -840 Descending FlightAware ADS-B
05:00PM 31.0606 -93.5537 219° Southwest 417 480 37,100 -1,020 Descending FlightAware ADS-B
05:01PM 30.9943 -93.6163 219° Southwest 418 481 36,400 -1,320 Descending FlightAware ADS-B
05:02PM 30.9483 -93.6597 219° Southwest 419 482 35,500 -2,460 Descending FlightAware ADS-B
05:02PM 30.9007 -93.7049 219° Southwest 422 486 33,900 -3,360 Descending FlightAware ADS-B
05:03PM 30.8548 -93.7481 219° Southwest 429 494 32,100 -3,660 Descending FlightAware ADS-B
05:03PM 30.8075 -93.7928 219° Southwest 436 502 30,200 -3,660 Descending FlightAware ADS-B
05:04PM 30.7429 -93.8539 219° Southwest 439 505 27,800 -3,240 Descending FlightAware ADS-B
05:04PM 30.6948 -93.8989 219° Southwest 433 498 26,400 -3,000 Descending FlightAware ADS-B
05:05PM 30.6479 -93.9428 219° Southwest 431 496 24,700 -3,000 Descending FlightAware ADS-B
05:05PM 30.5997 -93.9879 219° Southwest 424 488 23,300 -2,760 Descending FlightAware ADS-B
05:06PM 30.5544 -94.0304 219° Southwest 413 475 21,900 -2,760 Descending FlightAware ADS-B
05:06PM 30.5016 -94.0798 219° Southwest 403 464 20,300 -2,820 Descending FlightAware ADS-B
05:06PM 30.4970 -94.0842 219° Southwest 407 468 20,100 -2,580 Descending FlightAware ADS-B
05:07PM 30.4544 -94.1240 219° Southwest 393 452 18,900 -2,520 Descending FlightAware ADS-B
05:07PM 30.4120 -94.1635 219° Southwest 383 441 17,600 -2,640 Descending FlightAware ADS-B
05:07PM 30.4098 -94.1655 218° Southwest 392 451 17,500 -2,820 Descending FlightAware ADS-B
05:08PM 30.3708 -94.2017 219° Southwest 378 435 16,200 -2,700 Descending FlightAware ADS-B
05:08PM 30.3513 -94.2199 219° Southwest 376 433 15,600 -2,640 Descending FlightAware ADS-B
05:08PM 30.3302 -94.2395 219° Southwest 371 427 14,900 -2,880 Descending FlightAware ADS-B
05:09PM 30.2919 -94.2750 219° Southwest 371 427 13,500 -2,760 Descending FlightAware ADS-B
05:09PM 30.2820 -94.2842 219° Southwest 369 425 13,200 -2,400 Descending FlightAware ADS-B
05:10PM 30.2421 -94.3213 219° Southwest 363 418 12,000 -2,040 Descending FlightAware ADS-B
05:10PM 30.2302 -94.3324 219° Southwest 360 414 11,900 -300 Descending FlightAware ADS-B
05:10PM 30.2156 -94.3461 219° Southwest 359 413 11,900  Level FlightAware ADS-B
05:10PM 30.2070 -94.3562 225° Southwest 359 413 11,900  Level FlightAware ADS-B
05:10PM 30.2009 -94.3664 235° Southwest 358 412 11,900  Level FlightAware ADS-B
05:10PM 30.1975 -94.3742 243° Southwest 357 411 11,900  Level FlightAware ADS-B
05:10PM 30.1939 -94.3861 251° West 357 411 11,900 120 Level FlightAware ADS-B
05:11PM 30.1849 -94.4375 259° West 358 412 12,000 180 Climbing FlightAware ADS-B
05:11PM 30.1841 -94.4425 260° West 358 412 12,000 -600 Level FlightAware ADS-B
05:11PM 30.1747 -94.4988 259° West 358 412 11,700 -600 Descending FlightAware ADS-B
05:11PM 30.1740 -94.5025 258° West 359 413 11,700 -1,020 Level FlightAware ADS-B
05:12PM 30.1650 -94.5557 259° West 359 413 11,200 -1,140 Descending FlightAware ADS-B
05:12PM 30.1617 -94.5746 259° West 359 413 11,000 -960 Descending FlightAware ADS-B
05:12PM 30.1543 -94.6169 259° West 356 410 10,700 -960 Descending FlightAware ADS-B
05:13PM 30.1509 -94.6363 259° West 357 411 10,500 -1,020 Descending FlightAware ADS-B
05:13PM 30.1444 -94.6731 258° West 357 411 10,200 -780 Descending FlightAware ADS-B
05:13PM 30.1412 -94.6925 259° West 347 399 10,100 -420 Descending FlightAware ADS-B
05:13PM 30.1353 -94.7267 259° West 325 374 10,000 -240 Descending FlightAware ADS-B
05:14PM 30.1330 -94.7400 259° West 326 375 10,000 -420 Level FlightAware ADS-B
05:14PM 30.1310 -94.7518 259° West 308 354 9,900 -420 Descending FlightAware ADS-B
05:14PM 30.1287 -94.7651 259° West 301 346 9,900 -420 Level FlightAware ADS-B
05:14PM 30.1269 -94.7755 259° West 295 339 9,800 -840 Descending FlightAware ADS-B
05:14PM 30.1247 -94.7885 259° West 290 334 9,700 -840 Descending FlightAware ADS-B
05:14PM 30.1229 -94.7988 259° West 285 328 9,600 -1,200 Descending FlightAware ADS-B
05:14PM 30.1208 -94.8112 259° West 285 328 9,400 -1,440 Descending FlightAware ADS-B
05:14PM 30.1186 -94.8238 259° West 283 326 9,200 -1,140 Descending FlightAware ADS-B
05:15PM 30.1169 -94.8338 259° West 282 325 9,100 -1,200 Descending FlightAware ADS-B
05:15PM 30.1147 -94.8464 259° West 279 321 8,900 -1,500 Descending FlightAware ADS-B
05:15PM 30.1128 -94.8571 258° West 278 320 8,700 -1,620 Descending FlightAware ADS-B
05:15PM 30.1109 -94.8680 259° West 276 318 8,500 -1,500 Descending FlightAware ADS-B
05:15PM 30.1088 -94.8801 259° West 275 316 8,300 -960 Descending FlightAware ADS-B
05:15PM 30.1079 -94.8859 260° West 275 316 8,300 -1,020 Level FlightAware ADS-B
05:15PM 30.1064 -94.8977 262° West 272 313 8,100 -1,200 Descending FlightAware ADS-B
05:15PM 30.1062 -94.9003 265° West 272 313 8,100 -1,020 Level FlightAware ADS-B
05:15PM 30.1057 -94.9067 265° West 271 312 8,000 -1,740 Descending FlightAware ADS-B
05:15PM 30.1054 -94.9111 265° West 272 313 7,900 -1,380 Descending FlightAware ADS-B
05:16PM 30.1052 -94.9192 268° West 270 311 7,800 -1,380 Descending FlightAware ADS-B
05:16PM 30.1053 -94.9234 272° West 269 310 7,700 -1,200 Descending FlightAware ADS-B
05:16PM 30.1055 -94.9412 271° West 265 305 7,500 -1,200 Descending FlightAware ADS-B
05:16PM 30.1055 -94.9447 270° West 264 304 7,400 -1,500 Descending FlightAware ADS-B
05:16PM 30.1056 -94.9573 271° West 264 304 7,200 -1,620 Descending FlightAware ADS-B
05:16PM 30.1057 -94.9663 271° West 264 304 7,000 -2,040 Descending FlightAware ADS-B
05:16PM 30.1058 -94.9792 271° West 265 305 6,700 -1,860 Descending FlightAware ADS-B
05:16PM 30.1058 -94.9850 270° West 267 307 6,600 -1,620 Descending FlightAware ADS-B
05:16PM 30.1058 -95.0006 270° West 270 311 6,300 -1,620 Descending FlightAware ADS-B
05:17PM 30.1058 -95.0068 270° West 270 311 6,200 -1,200 Descending FlightAware ADS-B
05:17PM 30.1058 -95.0226 270° West 270 311 6,000 -1,200 Descending FlightAware ADS-B
05:17PM 30.1057 -95.0282 269° West 269 310 5,900 -420 Descending FlightAware ADS-B
05:17PM 30.1058 -95.0446 270° West 268 308 5,900  Level FlightAware ADS-B
05:17PM 30.1058 -95.0501 270° West 268 308 5,900  Level FlightAware ADS-B
05:17PM 30.1058 -95.0698 270° West 267 307 5,900  Level FlightAware ADS-B
05:17PM 30.1058 -95.0717 270° West 267 307 5,900 360 Level FlightAware ADS-B
05:18PM 30.1060 -95.0924 271° West 267 307 6,000  Climbing FlightAware ADS-B
05:18PM 30.1060 -95.0952 270° West 267 307 5,900  Descending FlightAware ADS-B
05:18PM 30.1061 -95.1142 270° West 270 311 6,000 360 Climbing FlightAware ADS-B
05:18PM 30.1061 -95.1169 270° West 270 311 6,000 -420 Level FlightAware ADS-B
05:18PM 30.1063 -95.1368 271° West 270 311 5,900 -420 Descending FlightAware ADS-B
05:18PM 30.1062 -95.1389 267° West 269 310 5,900  Level FlightAware ADS-B
05:18PM 30.1063 -95.1585 270° West 269 310 5,900  Level FlightAware ADS-B
05:18PM 30.1063 -95.1613 270° West 269 310 5,900 360 Level FlightAware ADS-B
05:19PM 30.1064 -95.1803 270° West 268 308 6,000 360 Climbing FlightAware ADS-B
05:19PM 30.1064 -95.1833 270° West 268 308 6,000 -420 Level FlightAware ADS-B
05:19PM 30.1064 -95.2020 270° West 267 307 5,900 -420 Descending FlightAware ADS-B
05:19PM 30.1065 -95.2053 272° West 267 307 5,900  Level FlightAware ADS-B
05:19PM 30.1065 -95.2236 270° West 266 306 5,900  Level FlightAware ADS-B
05:19PM 30.1065 -95.2271 270° West 266 306 5,900  Level FlightAware ADS-B
05:19PM 30.1065 -95.2462 270° West 265 305 5,900  Level FlightAware ADS-B
05:19PM 30.1065 -95.2485 270° West 265 305 5,900 360 Level FlightAware ADS-B
05:20PM 30.1066 -95.2679 270° West 266 306 6,000 360 Climbing FlightAware ADS-B
05:20PM 30.1066 -95.2699 270° West 266 306 6,000 -420 Level FlightAware ADS-B
05:20PM 30.1066 -95.2897 270° West 267 307 5,900 -420 Descending FlightAware ADS-B
05:20PM 30.1066 -95.2917 270° West 267 307 5,900 360 Level FlightAware ADS-B
05:20PM 30.1067 -95.3113 270° West 267 307 6,000 360 Climbing FlightAware ADS-B
05:20PM 30.1067 -95.3134 270° West 267 307 6,000 -420 Level FlightAware ADS-B
05:20PM 30.1068 -95.3346 270° West 267 307 5,900 -360 Descending FlightAware ADS-B
05:20PM 30.1068 -95.3369 270° West 267 307 5,900 360 Level FlightAware ADS-B
05:21PM 30.1068 -95.3574 270° West 267 307 6,000 360 Climbing FlightAware ADS-B
05:21PM 30.1068 -95.3588 270° West 267 307 6,000 -840 Level FlightAware ADS-B
05:21PM 30.1068 -95.3790 270° West 266 306 5,800 -840 Descending FlightAware ADS-B
05:21PM 30.1068 -95.3804 270° West 266 306 5,800 -1,440 Level FlightAware ADS-B
05:21PM 30.1068 -95.4019 270° West 267 307 5,400 -1,500 Descending FlightAware ADS-B
05:21PM 30.1068 -95.4189 270° West 264 304 5,100 -1,200 Descending FlightAware ADS-B
05:21PM 30.1068 -95.4246 270° West 264 304 5,100 -1,200 Level FlightAware ADS-B
05:22PM 30.1069 -95.4341 271° West 263 303 4,900 -1,380 Descending FlightAware ADS-B
05:22PM 30.1070 -95.4367 273° West 263 303 4,900 -900 Level FlightAware ADS-B
05:22PM 30.1074 -95.4438 274° West 265 305 4,800 -420 Descending FlightAware ADS-B
05:22PM 30.1084 -95.4591 274° West 265 305 4,800 420 Level FlightAware ADS-B
05:22PM 30.1086 -95.4626 274° West 262 302 4,900 360 Climbing FlightAware ADS-B
05:22PM 30.1098 -95.4800 275° West 253 291 4,900 360 Level FlightAware ADS-B
05:22PM 30.1101 -95.4852 274° West 253 291 5,000  Climbing FlightAware ADS-B
05:22PM 30.1105 -95.4921 274° West 250 288 4,900 -780 Descending FlightAware ADS-B
05:22PM 30.1104 -95.4955 268° West 249 287 4,900 1,500 Level FlightAware ADS-B
05:22PM 30.1101 -95.4987 264° West 247 284 5,000  Climbing FlightAware ADS-B
05:22PM 30.1095 -95.5027 260° West 246 283 4,900 -1,020 Descending FlightAware ADS-B
05:22PM 30.1090 -95.5054 258° West 245 282 4,900 960 Level FlightAware ADS-B
05:22PM 30.1076 -95.5112 254° West 246 283 5,000 1,200 Climbing FlightAware ADS-B
05:23PM 30.1073 -95.5124 254° West 245 282 5,000  Level FlightAware ADS-B
05:23PM 30.1021 -95.5338 254° West 246 283 5,000  Level FlightAware ADS-B
05:23PM 30.1011 -95.5379 254° West 246 283 5,000  Level FlightAware ADS-B
05:23PM 30.0973 -95.5532 254° West 248 285 5,000  Level FlightAware ADS-B
05:23PM 30.0964 -95.5570 255° West 248 285 5,000  Level FlightAware ADS-B
05:23PM 30.0940 -95.5661 253° West 248 285 5,000 -600 Level FlightAware ADS-B
05:23PM 30.0924 -95.5709 249° West 246 283 4,900 -720 Descending FlightAware ADS-B
05:23PM 30.0899 -95.5762 241° Southwest 243 280 4,900 -720 Level FlightAware ADS-B
05:23PM 30.0872 -95.5805 234° Southwest 241 277 4,800 -780 Descending FlightAware ADS-B
05:23PM 30.0841 -95.5842 226° Southwest 238 274 4,800 -1,380 Level FlightAware ADS-B
05:24PM 30.0800 -95.5879 218° Southwest 237 273 4,600 -2,280 Descending FlightAware ADS-B
05:24PM 30.0772 -95.5898 210° Southwest 237 273 4,500 -1,740 Descending FlightAware ADS-B
05:24PM 30.0729 -95.5919 203° Southwest 249 287 4,400 -1,200 Descending FlightAware ADS-B
05:24PM 30.0719 -95.5923 199° South 237 273 4,400 -2,040 Level FlightAware ADS-B
05:24PM 30.0663 -95.5937 192° South 238 274 4,200 -2,280 Descending FlightAware ADS-B
05:24PM 30.0628 -95.5941 186° South 237 273 4,100 -1,200 Descending FlightAware ADS-B
05:24PM 30.0498 -95.5953 185° South 236 272 3,900 -840 Descending FlightAware ADS-B
05:24PM 30.0464 -95.5957 186° South 235 270 3,900 -720 Level FlightAware ADS-B
05:24PM 30.0400 -95.5962 184° South 232 267 3,800 -1,200 Descending FlightAware ADS-B
05:24PM 30.0356 -95.5961 179° South 232 267 3,700 -780 Descending FlightAware ADS-B
05:24PM 30.0323 -95.5956 173° South 233 268 3,700 -780 Level FlightAware ADS-B
05:24PM 30.0278 -95.5942 165° South 233 268 3,600 -1,740 Descending FlightAware ADS-B
05:24PM 30.0246 -95.5926 157° South 233 268 3,500 -1,500 Descending FlightAware ADS-B
05:24PM 30.0236 -95.5921 157° South 236 272 3,500 -1,500 Level FlightAware ADS-B
05:25PM 30.0215 -95.5907 150° Southeast 233 268 3,400 -1,500 Descending FlightAware ADS-B
05:25PM 30.0201 -95.5896 146° Southeast 233 268 3,400  Level FlightAware ADS-B
05:25PM 30.0184 -95.5882 145° Southeast 232 267 3,400 -1,020 Level FlightAware ADS-B
05:25PM 30.0156 -95.5850 135° Southeast 231 266 3,300 -900 Descending FlightAware ADS-B
05:25PM 30.0131 -95.5816 130° Southeast 232 267 3,300 -900 Level FlightAware ADS-B
05:25PM 30.0112 -95.5782 123° Southeast 232 267 3,200 -900 Descending FlightAware ADS-B
05:25PM 30.0097 -95.5749 118° Southeast 232 267 3,200 -1,020 Level FlightAware ADS-B
05:25PM 30.0085 -95.5716 113° Southeast 233 268 3,100 -720 Descending FlightAware ADS-B
05:25PM 30.0024 -95.5539 112° Southeast 225 259 3,000 -540 Descending FlightAware ADS-B
05:25PM 29.9957 -95.5333 111° Southeast 215 247 2,800 -720 Descending FlightAware ADS-B
05:26PM 29.9940 -95.5256 104° East 213 245 2,700 -780 Descending FlightAware ADS-B
05:26PM 29.9939 -95.5245 96° East 217 250 2,700  Level FlightAware ADS-B
05:26PM 29.9937 -95.5219 95° East 212 244 2,700 -540 Level FlightAware ADS-B
05:26PM 29.9932 -95.5106 93° East 211 243 2,600 -960 Descending FlightAware ADS-B
05:26PM 29.9931 -95.5079 92° East 212 244 2,500 -1,200 Descending FlightAware ADS-B
05:26PM 29.9929 -95.4994 92° East 208 239 2,400 -660 Descending FlightAware ADS-B
05:26PM 29.9929 -95.4871 90° East 204 235 2,300 -480 Descending FlightAware ADS-B
05:26PM 29.9929 -95.4850 90° East 210 242 2,300 -1,320 Level FlightAware ADS-B
05:26PM 29.9935 -95.4660 88° East 200 230 1,900 -1,260 Descending FlightAware ADS-B
05:27PM 29.9938 -95.4491 89° East 191 220 1,600 -1,080 Descending FlightAware ADS-B
05:27PM 29.9936 -95.4319 91° East 174 200 1,300 -900 Descending FlightAware ADS-B
05:27PM 29.9935 -95.4233 91° East 161 185 1,200 -900 Descending FlightAware ADS-B
05:27PM 29.9935 -95.4089 90° East 151 174 900 -900 Descending FlightAware ADS-B
05:28PM 29.9936 -95.4014 89° East 150 173 800 -780 Descending FlightAware ADS-B
05:28PM 29.9935 -95.3891 91° East 154 177 600 -780 Descending FlightAware ADS-B
05:28PM 29.9934 -95.3769 91° East 150 173 400 -780 Descending FlightAware ADS-B
05:28PM 29.9935 -95.3648 89° East 148 170 200 -840 Descending FlightAware ADS-B
05:29PM 29.9935 -95.3500 90° East 144 166 -660 Descending FlightAware ADS-B